Time;durP1;ratioP1;P1;durP2;ratioP2;P2;SDS_P1;SDS_P2;PMS_P1;PMS_P2;Temp;Humidity;BMP_temperature;BMP_pressure;BME280_temperature;BME280_humidity;BME280_pressure;Samples;Min_cycle;Max_cycle;Signal;HPM_P1;HPM_P2
2021/11/06 00:00:18;;;;;;;3.35;1.42;;;7.40;49.60;;;;;;4974610;28;20030;-78
2021/11/06 00:02:44;;;;;;;2.65;1.38;;;7.40;49.30;;;;;;4966842;28;20098;-75
2021/11/06 00:05:09;;;;;;;3.70;1.05;;;7.40;49.10;;;;;;5000927;28;20030;-74
2021/11/06 00:07:35;;;;;;;2.47;1.33;;;7.40;49.30;;;;;;4973133;28;20026;-79
2021/11/06 00:10:01;;;;;;;1.83;1.35;;;7.40;48.80;;;;;;5000643;28;20467;-78
2021/11/06 00:12:27;;;;;;;5.90;1.77;;;7.40;49.20;;;;;;4973031;28;20075;-75
2021/11/06 00:14:53;;;;;;;2.03;1.10;;;7.40;49.30;;;;;;5005658;28;20034;-72
2021/11/06 00:17:19;;;;;;;2.17;1.10;;;7.30;49.50;;;;;;5003015;28;20557;-78
2021/11/06 00:19:44;;;;;;;4.22;1.25;;;7.30;49.40;;;;;;4973200;28;20062;-77
2021/11/06 00:22:12;;;;;;;1.92;1.10;;;7.30;49.00;;;;;;5005168;28;20019;-78
2021/11/06 00:24:38;;;;;;;2.88;1.35;;;7.30;48.90;;;;;;5005724;28;20085;-78
2021/11/06 00:27:03;;;;;;;1.75;1.08;;;7.30;48.80;;;;;;4973979;28;20478;-77
2021/11/06 00:29:29;;;;;;;3.03;1.30;;;7.30;48.50;;;;;;4973015;28;20376;-73
2021/11/06 00:31:55;;;;;;;2.67;1.25;;;7.30;49.10;;;;;;4974342;28;20106;-75
2021/11/06 00:34:21;;;;;;;2.67;1.10;;;7.20;49.40;;;;;;4974049;28;20023;-74
2021/11/06 00:36:47;;;;;;;2.70;1.20;;;7.20;48.70;;;;;;5005084;28;20137;-77
2021/11/06 00:39:12;;;;;;;1.75;1.30;;;7.30;49.30;;;;;;4974003;28;20444;-78
2021/11/06 00:41:38;;;;;;;2.05;1.05;;;7.30;48.80;;;;;;4972961;28;20026;-78
2021/11/06 00:44:04;;;;;;;2.85;1.20;;;7.20;48.90;;;;;;5004996;28;20019;-74
2021/11/06 00:46:30;;;;;;;1.63;1.00;;;7.20;48.60;;;;;;4973983;28;20022;-73
2021/11/06 00:48:56;;;;;;;2.63;1.38;;;7.20;48.80;;;;;;4973942;28;20027;-78
2021/11/06 00:51:22;;;;;;;1.50;1.10;;;7.20;48.40;;;;;;4972602;28;20038;-77
2021/11/06 00:53:49;;;;;;;3.20;1.23;;;7.20;48.90;;;;;;5005366;28;20035;-77
2021/11/06 00:56:14;;;;;;;2.10;1.10;;;7.20;48.90;;;;;;5005026;28;20027;-72
2021/11/06 00:58:40;;;;;;;3.80;1.42;;;7.20;49.00;;;;;;4975013;28;20549;-74
2021/11/06 01:01:06;;;;;;;2.92;1.00;;;7.10;49.40;;;;;;5009136;28;20019;-79
2021/11/06 01:03:32;;;;;;;3.30;1.27;;;7.10;49.10;;;;;;4977899;28;20384;-73
2021/11/06 01:05:58;;;;;;;4.00;1.17;;;7.10;49.20;;;;;;4977660;28;20030;-76
2021/11/06 01:08:23;;;;;;;1.67;0.85;;;7.10;49.00;;;;;;4975028;28;20454;-78
2021/11/06 01:10:49;;;;;;;1.95;1.05;;;7.10;49.00;;;;;;5008980;28;20029;-78
2021/11/06 01:13:17;;;;;;;2.13;1.20;;;7.00;49.80;;;;;;5005810;28;20027;-75
2021/11/06 01:15:43;;;;;;;2.85;1.00;;;7.00;49.30;;;;;;5006785;28;20022;-74
2021/11/06 01:18:08;;;;;;;1.77;1.00;;;7.00;49.20;;;;;;4974632;28;20105;-73
2021/11/06 01:20:34;;;;;;;1.95;0.90;;;7.00;49.30;;;;;;5004700;28;20014;-74
2021/11/06 01:23:00;;;;;;;2.42;0.80;;;7.00;49.60;;;;;;4977573;28;20089;-75
2021/11/06 01:25:26;;;;;;;1.65;0.93;;;7.00;49.80;;;;;;4972054;28;20396;-77
2021/11/06 01:27:52;;;;;;;3.22;1.20;;;6.90;50.50;;;;;;4977214;28;20035;-78
2021/11/06 01:30:18;;;;;;;2.80;1.00;;;6.90;49.70;;;;;;4977367;28;20093;-72
2021/11/06 01:32:45;;;;;;;1.67;1.00;;;6.90;49.70;;;;;;4977126;28;20030;-75
2021/11/06 01:35:12;;;;;;;5.18;1.40;;;6.90;49.70;;;;;;4977221;28;20027;-78
2021/11/06 01:37:38;;;;;;;1.73;1.00;;;6.80;50.00;;;;;;4975333;28;20055;-74
2021/11/06 01:40:06;;;;;;;3.47;0.98;;;6.80;50.30;;;;;;4977147;28;20497;-79
2021/11/06 01:42:32;;;;;;;2.38;1.10;;;6.70;50.50;;;;;;5008661;28;20030;-78
2021/11/06 01:44:58;;;;;;;1.90;1.02;;;6.70;50.70;;;;;;4977049;28;20019;-78
2021/11/06 01:47:24;;;;;;;2.33;1.40;;;6.60;51.20;;;;;;4970417;28;20031;-78
2021/11/06 01:49:50;;;;;;;1.58;0.95;;;6.60;50.70;;;;;;5003169;28;20023;-78
2021/11/06 01:52:16;;;;;;;1.95;0.75;;;6.50;51.10;;;;;;5008349;28;20175;-77
2021/11/06 01:54:41;;;;;;;2.75;1.30;;;6.60;50.30;;;;;;4977091;28;20027;-73
2021/11/06 01:57:07;;;;;;;1.67;1.10;;;6.50;50.60;;;;;;4994097;28;20023;-77
2021/11/06 01:59:33;;;;;;;3.28;1.20;;;6.50;50.50;;;;;;5008220;28;20010;-73
2021/11/06 02:01:59;;;;;;;4.22;1.00;;;6.50;50.90;;;;;;4976814;28;20466;-73
2021/11/06 02:04:25;;;;;;;3.45;1.30;;;6.50;51.80;;;;;;5006922;28;20114;-75
2021/11/06 02:06:51;;;;;;;1.80;0.88;;;6.50;50.30;;;;;;4971768;28;20518;-74
2021/11/06 02:09:16;;;;;;;1.58;0.70;;;6.60;50.20;;;;;;4974480;28;20114;-78
2021/11/06 02:11:43;;;;;;;0.98;0.80;;;6.60;50.20;;;;;;4971351;28;20038;-74
2021/11/06 02:14:09;;;;;;;2.17;1.20;;;6.50;50.30;;;;;;4975460;28;20087;-75
2021/11/06 02:16:35;;;;;;;2.50;1.38;;;6.50;50.70;;;;;;4976445;28;20031;-77
2021/11/06 02:19:03;;;;;;;1.85;1.27;;;6.50;50.80;;;;;;4975315;28;20074;-74
2021/11/06 02:21:29;;;;;;;1.58;0.70;;;6.40;51.00;;;;;;4975179;28;20019;-75
2021/11/06 02:23:54;;;;;;;2.25;0.73;;;6.50;49.60;;;;;;5007845;28;20023;-74
2021/11/06 02:26:21;;;;;;;2.83;0.90;;;6.50;50.10;;;;;;4974849;28;20219;-73
2021/11/06 02:28:51;;;;;;;1.70;0.77;;;6.60;49.20;;;;;;4975069;28;20458;-78
2021/11/06 02:31:17;;;;;;;2.80;0.85;;;6.70;49.20;;;;;;4976327;28;20031;-73
2021/11/06 02:33:43;;;;;;;1.88;1.08;;;6.70;49.90;;;;;;4976205;28;20023;-74
2021/11/06 02:36:09;;;;;;;1.75;0.75;;;6.60;50.50;;;;;;5006970;28;20093;-73
2021/11/06 02:38:35;;;;;;;2.42;0.70;;;6.70;49.60;;;;;;5007457;28;20019;-74
2021/11/06 02:41:01;;;;;;;2.58;0.90;;;6.60;50.20;;;;;;4974917;28;20138;-74
2021/11/06 02:43:27;;;;;;;1.45;0.73;;;6.50;50.70;;;;;;4975871;28;20019;-74
2021/11/06 02:45:52;;;;;;;2.63;0.95;;;6.40;51.30;;;;;;5007504;28;20027;-73
2021/11/06 02:48:18;;;;;;;1.80;1.02;;;6.40;51.00;;;;;;4973574;28;20027;-74
2021/11/06 02:50:44;;;;;;;0.85;0.50;;;6.30;51.30;;;;;;4995728;28;20076;-77
2021/11/06 02:53:10;;;;;;;1.75;0.60;;;6.40;49.60;;;;;;5007126;28;20027;-75
2021/11/06 02:55:36;;;;;;;2.30;1.00;;;6.50;49.30;;;;;;4975706;28;20029;-73
2021/11/06 02:58:02;;;;;;;1.42;0.70;;;6.60;49.40;;;;;;4974440;28;20101;-73
2021/11/06 03:00:30;;;;;;;1.33;0.60;;;6.60;49.00;;;;;;4975935;28;20082;-75
2021/11/06 03:02:56;;;;;;;0.88;0.60;;;6.70;48.40;;;;;;4975532;28;20467;-78
2021/11/06 03:05:24;;;;;;;1.67;0.68;;;6.80;48.40;;;;;;4973551;28;20031;-72
2021/11/06 03:07:50;;;;;;;2.03;0.73;;;6.90;47.70;;;;;;4975653;28;20030;-74
2021/11/06 03:10:17;;;;;;;2.28;0.50;;;7.00;47.20;;;;;;5006605;28;20466;-77
2021/11/06 03:12:45;;;;;;;1.15;0.60;;;7.00;47.20;;;;;;4970260;28;20029;-79
2021/11/06 03:15:11;;;;;;;1.70;0.52;;;7.10;46.60;;;;;;5000487;28;20027;-78
2021/11/06 03:17:38;;;;;;;1.52;0.73;;;7.10;46.60;;;;;;4967882;28;20031;-73
2021/11/06 03:20:05;;;;;;;1.00;0.50;;;7.10;46.80;;;;;;4973726;28;20014;-78
2021/11/06 03:22:32;;;;;;;0.90;0.60;;;7.00;47.20;;;;;;4975051;28;20029;-74
2021/11/06 03:24:59;;;;;;;2.88;0.77;;;7.00;47.70;;;;;;4974032;28;20023;-77
2021/11/06 03:27:25;;;;;;;1.40;0.75;;;6.80;48.80;;;;;;5003960;28;20416;-74
2021/11/06 03:29:51;;;;;;;1.50;0.85;;;6.70;49.30;;;;;;4975314;28;20089;-77
2021/11/06 03:32:17;;;;;;;1.20;0.60;;;6.60;49.20;;;;;;4975199;28;20023;-78
2021/11/06 03:34:42;;;;;;;1.00;0.50;;;6.60;47.80;;;;;;4975402;28;20467;-78
2021/11/06 03:37:08;;;;;;;1.77;0.98;;;6.60;48.70;;;;;;4974511;28;20491;-78
2021/11/06 03:39:35;;;;;;;0.95;0.77;;;6.70;48.60;;;;;;4973580;28;20019;-76
2021/11/06 03:42:02;;;;;;;3.38;0.82;;;6.70;48.40;;;;;;4968562;28;20049;-75
2021/11/06 03:44:27;;;;;;;0.68;0.50;;;6.60;48.40;;;;;;4974220;28;20023;-78
2021/11/06 03:46:53;;;;;;;1.55;0.50;;;6.60;48.40;;;;;;4974704;28;20458;-73
2021/11/06 03:49:19;;;;;;;1.33;0.73;;;6.60;48.70;;;;;;4973791;28;20038;-75
2021/11/06 03:51:45;;;;;;;1.17;0.55;;;6.60;48.70;;;;;;4974569;28;20026;-78
2021/11/06 03:54:11;;;;;;;1.60;0.60;;;6.50;49.00;;;;;;4974869;28;20035;-72
2021/11/06 03:56:37;;;;;;;1.20;0.68;;;6.40;49.40;;;;;;4974645;28;20030;-73
2021/11/06 03:59:03;;;;;;;1.50;0.57;;;6.50;49.20;;;;;;5005035;28;20030;-78
2021/11/06 04:01:31;;;;;;;0.77;0.50;;;6.50;48.50;;;;;;4974355;28;20091;-78
2021/11/06 04:03:57;;;;;;;1.60;0.82;;;6.50;48.60;;;;;;4974444;28;20105;-74
2021/11/06 04:06:23;;;;;;;0.93;0.65;;;6.50;49.30;;;;;;5005797;28;20101;-75
2021/11/06 04:08:49;;;;;;;0.90;0.60;;;6.50;48.90;;;;;;5005657;28;20054;-75
2021/11/06 04:11:15;;;;;;;0.82;0.57;;;6.40;49.40;;;;;;4974174;28;20387;-72
2021/11/06 04:13:41;;;;;;;1.20;0.50;;;6.40;49.10;;;;;;4967246;28;20035;-73
2021/11/06 04:16:07;;;;;;;1.38;0.73;;;6.40;49.40;;;;;;4974173;28;20026;-78
2021/11/06 04:18:33;;;;;;;1.20;0.65;;;6.40;49.50;;;;;;4974416;28;20023;-75
2021/11/06 04:20:59;;;;;;;0.88;0.80;;;6.30;49.80;;;;;;5004530;28;20066;-77
2021/11/06 04:23:25;;;;;;;2.55;0.80;;;6.30;49.10;;;;;;4974246;28;20023;-79
2021/11/06 04:25:50;;;;;;;2.85;0.70;;;6.30;49.80;;;;;;4998285;28;20066;-73
2021/11/06 04:28:16;;;;;;;0.80;0.50;;;6.30;49.80;;;;;;4974342;28;20030;-73
2021/11/06 04:30:42;;;;;;;1.17;0.70;;;6.20;49.80;;;;;;4973005;28;20402;-79
2021/11/06 04:33:08;;;;;;;1.20;0.57;;;6.20;50.10;;;;;;4972617;28;20022;-75
2021/11/06 04:35:34;;;;;;;1.33;0.50;;;6.20;49.60;;;;;;4972570;28;20023;-74
2021/11/06 04:37:59;;;;;;;1.08;0.50;;;6.10;49.80;;;;;;4973900;28;20019;-73
2021/11/06 04:40:25;;;;;;;1.30;0.60;;;6.20;49.70;;;;;;4972664;28;20030;-72
2021/11/06 04:42:51;;;;;;;0.88;0.60;;;6.30;48.90;;;;;;5005321;28;20462;-78
2021/11/06 04:45:16;;;;;;;1.38;0.73;;;6.20;49.70;;;;;;4973715;28;20387;-78
2021/11/06 04:47:42;;;;;;;1.10;0.65;;;6.10;50.30;;;;;;5005277;28;20117;-79
2021/11/06 04:50:10;;;;;;;1.38;0.60;;;6.10;50.30;;;;;;4973963;28;20031;-78
2021/11/06 04:52:36;;;;;;;0.93;0.50;;;6.10;50.30;;;;;;4974094;28;20098;-78
2021/11/06 04:55:08;;;;;;;2.05;0.50;;;6.00;50.90;;;;;;4972635;28;20035;-78
2021/11/06 04:57:34;;;;;;;0.70;0.50;;;6.00;51.00;;;;;;4996757;28;20059;-73
2021/11/06 05:00:00;;;;;;;0.63;0.40;;;5.90;49.90;;;;;;4980275;28;20122;-77
2021/11/06 05:02:26;;;;;;;1.13;0.60;;;6.20;48.60;;;;;;4974064;28;20102;-79
2021/11/06 05:04:51;;;;;;;0.70;0.40;;;6.30;48.30;;;;;;4972741;28;20479;-79
2021/11/06 05:07:17;;;;;;;1.35;0.68;;;6.30;48.70;;;;;;4999903;28;20463;-73
2021/11/06 05:09:43;;;;;;;0.82;0.55;;;6.30;48.60;;;;;;4967280;28;20085;-77
2021/11/06 05:12:11;;;;;;;2.80;0.77;;;6.30;48.60;;;;;;5000218;28;20027;-78
2021/11/06 05:14:37;;;;;;;1.85;0.60;;;6.20;49.40;;;;;;5001640;28;20086;-74
2021/11/06 05:17:03;;;;;;;2.88;0.55;;;6.20;49.50;;;;;;4969070;28;20451;-79
2021/11/06 05:19:28;;;;;;;0.80;0.35;;;6.20;49.30;;;;;;5004589;28;20014;-81
2021/11/06 05:21:54;;;;;;;0.60;0.47;;;6.10;49.30;;;;;;4973187;28;20031;-75
2021/11/06 05:24:20;;;;;;;0.85;0.50;;;6.20;49.40;;;;;;4972282;28;20015;-78
2021/11/06 05:26:46;;;;;;;0.98;0.50;;;6.10;49.50;;;;;;5004958;28;20054;-78
2021/11/06 05:29:12;;;;;;;0.95;0.50;;;6.10;49.80;;;;;;4973613;28;20038;-73
2021/11/06 05:31:39;;;;;;;1.73;0.40;;;6.00;49.90;;;;;;5004849;28;20187;-73
2021/11/06 05:34:06;;;;;;;1.10;0.50;;;6.00;50.10;;;;;;4971522;28;20059;-75
2021/11/06 05:36:33;;;;;;;1.33;0.50;;;6.00;49.90;;;;;;5004493;28;20499;-75
2021/11/06 05:38:58;;;;;;;2.40;0.50;;;6.00;50.00;;;;;;4972355;28;20022;-74
2021/11/06 05:41:24;;;;;;;1.15;0.47;;;6.00;49.60;;;;;;4973135;28;20026;-78
2021/11/06 05:43:50;;;;;;;0.75;0.63;;;6.00;49.70;;;;;;5005729;28;20046;-79
2021/11/06 05:46:16;;;;;;;3.60;0.55;;;6.00;49.60;;;;;;4977178;28;20031;-77
2021/11/06 05:48:42;;;;;;;0.55;0.40;;;6.00;49.60;;;;;;4975481;28;20126;-78
2021/11/06 05:51:07;;;;;;;0.55;0.40;;;6.10;49.20;;;;;;4975856;28;20523;-75
2021/11/06 05:53:33;;;;;;;1.50;0.90;;;6.10;49.30;;;;;;4976133;28;20051;-76
2021/11/06 05:55:59;;;;;;;0.95;0.50;;;6.10;49.30;;;;;;4976857;28;20091;-75
2021/11/06 05:58:25;;;;;;;0.70;0.40;;;6.10;49.50;;;;;;4976832;28;20023;-78
2021/11/06 06:00:51;;;;;;;0.80;0.45;;;6.00;49.20;;;;;;4972244;28;20023;-77
2021/11/06 06:03:17;;;;;;;0.60;0.45;;;6.00;49.60;;;;;;5008053;28;20471;-79
2021/11/06 06:05:44;;;;;;;1.20;0.50;;;6.00;49.50;;;;;;4976476;28;20034;-74
2021/11/06 06:08:10;;;;;;;0.85;0.43;;;6.00;49.20;;;;;;4976750;28;20402;-75
2021/11/06 06:10:35;;;;;;;1.20;0.50;;;5.90;49.60;;;;;;4976335;28;20019;-74
2021/11/06 06:13:01;;;;;;;0.90;0.40;;;5.90;50.20;;;;;;5007605;28;20027;-78
2021/11/06 06:15:27;;;;;;;1.67;0.85;;;5.80;50.40;;;;;;5007596;28;20118;-79
2021/11/06 06:17:53;;;;;;;2.05;0.40;;;5.80;50.60;;;;;;5007500;28;20399;-78
2021/11/06 06:20:19;;;;;;;1.27;0.50;;;5.70;50.80;;;;;;4975801;28;20046;-73
2021/11/06 06:22:46;;;;;;;3.30;0.50;;;5.70;49.90;;;;;;4975807;28;20030;-73
2021/11/06 06:25:14;;;;;;;0.80;0.52;;;5.90;49.40;;;;;;4976465;28;20023;-72
2021/11/06 06:27:41;;;;;;;1.73;0.55;;;5.90;49.20;;;;;;4974552;28;20418;-73
2021/11/06 06:30:09;;;;;;;1.98;0.60;;;6.00;48.90;;;;;;4976027;28;20446;-73
2021/11/06 06:32:37;;;;;;;1.27;0.40;;;6.00;49.20;;;;;;4975962;28;20019;-79
2021/11/06 06:35:04;;;;;;;1.02;0.63;;;6.10;49.30;;;;;;4972870;28;20025;-77
2021/11/06 06:37:29;;;;;;;1.48;0.80;;;6.00;49.20;;;;;;4971232;28;20403;-77
2021/11/06 06:39:55;;;;;;;1.65;0.50;;;6.00;49.80;;;;;;5007121;28;20022;-79
2021/11/06 06:42:23;;;;;;;0.80;0.50;;;6.00;49.80;;;;;;4974901;28;20038;-75
2021/11/06 06:44:49;;;;;;;1.02;0.50;;;5.90;50.20;;;;;;4975785;28;20026;-72
2021/11/06 06:47:15;;;;;;;1.63;0.60;;;5.80;49.90;;;;;;4975842;28;20018;-77
2021/11/06 06:49:41;;;;;;;1.20;0.50;;;5.80;50.20;;;;;;5006746;28;20521;-75
2021/11/06 06:52:07;;;;;;;2.45;0.70;;;5.90;50.20;;;;;;4975636;28;20097;-78
2021/11/06 06:54:33;;;;;;;0.70;0.40;;;5.90;50.00;;;;;;4975886;28;20033;-75
2021/11/06 06:56:58;;;;;;;2.33;0.70;;;5.80;50.00;;;;;;5005156;28;20027;-73
2021/11/06 06:59:24;;;;;;;1.50;0.82;;;5.80;50.40;;;;;;4974529;28;20325;-74
2021/11/06 07:01:50;;;;;;;0.93;0.50;;;5.90;50.30;;;;;;4975143;28;20050;-73
2021/11/06 07:04:16;;;;;;;0.60;0.40;;;6.00;49.00;;;;;;4975227;28;20439;-78
2021/11/06 07:06:42;;;;;;;1.67;0.60;;;6.10;48.80;;;;;;4973558;28;20061;-73
2021/11/06 07:09:09;;;;;;;1.67;0.70;;;6.20;48.80;;;;;;4974257;28;20042;-73
2021/11/06 07:11:35;;;;;;;1.52;0.73;;;6.30;48.30;;;;;;5006291;28;20023;-74
2021/11/06 07:14:02;;;;;;;2.67;0.88;;;6.30;48.00;;;;;;4973848;28;20030;-78
2021/11/06 07:16:28;;;;;;;1.58;0.75;;;6.40;48.60;;;;;;4973523;28;20394;-77
2021/11/06 07:18:54;;;;;;;4.50;0.45;;;6.60;48.10;;;;;;4974757;28;20015;-73
2021/11/06 07:21:20;;;;;;;2.55;0.65;;;6.80;47.40;;;;;;4973918;28;20499;-72
2021/11/06 07:23:45;;;;;;;1.05;0.57;;;7.10;46.90;;;;;;4973672;28;20393;-73
2021/11/06 07:26:11;;;;;;;1.85;0.50;;;7.30;46.20;;;;;;5005966;28;20515;-78
2021/11/06 07:28:37;;;;;;;1.23;0.55;;;7.50;45.80;;;;;;4974964;28;20034;-78
2021/11/06 07:31:02;;;;;;;1.20;1.02;;;7.70;45.60;;;;;;4974605;28;20514;-78
2021/11/06 07:33:28;;;;;;;1.40;0.60;;;7.80;45.50;;;;;;4974439;28;20023;-73
2021/11/06 07:35:54;;;;;;;0.90;0.45;;;8.00;45.50;;;;;;4973072;28;20047;-73
2021/11/06 07:38:20;;;;;;;0.75;0.50;;;8.20;45.00;;;;;;5006039;28;20118;-78
2021/11/06 07:40:45;;;;;;;1.00;0.50;;;8.30;44.30;;;;;;4973939;28;20459;-79
2021/11/06 07:43:11;;;;;;;0.57;0.50;;;8.40;43.90;;;;;;4974619;28;20019;-75
2021/11/06 07:45:38;;;;;;;0.63;0.40;;;8.50;43.40;;;;;;4974111;28;20058;-77
2021/11/06 07:48:04;;;;;;;1.23;0.65;;;8.50;43.80;;;;;;4972245;28;20023;-77
2021/11/06 07:50:30;;;;;;;0.82;0.50;;;8.60;43.10;;;;;;4975034;28;20065;-75
2021/11/06 07:52:56;;;;;;;0.80;0.50;;;8.70;43.50;;;;;;4974900;28;20027;-75
2021/11/06 07:55:22;;;;;;;0.93;0.60;;;8.70;43.50;;;;;;4973213;28;20081;-77
2021/11/06 07:57:48;;;;;;;1.35;0.57;;;8.80;42.70;;;;;;5006208;28;20026;-76
2021/11/06 08:00:18;;;;;;;1.30;0.50;;;8.80;42.90;;;;;;5005950;28;20065;-76
2021/11/06 08:02:45;;;;;;;1.27;0.52;;;8.90;43.00;;;;;;4973587;28;20030;-78
2021/11/06 08:05:13;;;;;;;2.00;0.52;;;9.00;42.20;;;;;;4955765;28;20022;-74
2021/11/06 08:07:40;;;;;;;1.40;0.50;;;9.10;41.80;;;;;;5009073;28;20114;-73
2021/11/06 08:10:08;;;;;;;2.28;0.70;;;9.20;42.20;;;;;;4975542;28;20019;-78
2021/11/06 08:12:37;;;;;;;0.85;0.77;;;9.30;42.40;;;;;;4971368;28;20023;-73
2021/11/06 08:15:07;;;;;;;1.35;0.57;;;9.40;41.80;;;;;;4974650;28;20073;-74
2021/11/06 08:17:34;;;;;;;0.85;0.50;;;9.50;40.70;;;;;;5005447;28;20058;-75
2021/11/06 08:19:59;;;;;;;2.15;0.55;;;9.60;40.30;;;;;;4974342;28;20458;-77
2021/11/06 08:22:25;;;;;;;0.50;0.35;;;9.70;40.00;;;;;;4972291;28;20039;-77
2021/11/06 08:24:51;;;;;;;6.55;0.65;;;9.80;41.40;;;;;;4974962;28;20387;-73
2021/11/06 08:27:17;;;;;;;1.40;0.50;;;10.00;39.20;;;;;;4972044;28;20033;-73
2021/11/06 08:29:43;;;;;;;1.17;0.60;;;10.00;38.70;;;;;;4979518;28;20077;-78
2021/11/06 08:32:09;;;;;;;1.08;0.50;;;10.10;39.30;;;;;;4974396;28;20027;-73
2021/11/06 08:34:35;;;;;;;1.40;0.60;;;10.10;38.90;;;;;;4973747;28;20026;-73
2021/11/06 08:37:01;;;;;;;1.40;0.60;;;10.20;38.50;;;;;;4965882;28;20514;-74
2021/11/06 08:39:27;;;;;;;2.35;0.68;;;10.20;39.40;;;;;;5002664;28;20098;-77
2021/11/06 08:41:55;;;;;;;2.25;0.80;;;10.30;39.90;;;;;;4973575;28;20062;-73
2021/11/06 08:44:21;;;;;;;1.67;0.73;;;10.40;40.40;;;;;;4974306;28;20018;-78
2021/11/06 08:46:50;;;;;;;2.58;0.50;;;10.50;39.00;;;;;;4972638;28;20031;-74
2021/11/06 08:49:17;;;;;;;1.30;0.60;;;10.50;38.40;;;;;;4974096;28;20025;-77
2021/11/06 08:51:47;;;;;;;1.85;0.65;;;10.50;38.60;;;;;;4974030;28;20033;-78
2021/11/06 08:54:14;;;;;;;1.98;0.55;;;10.60;38.60;;;;;;4963452;28;20549;-77
2021/11/06 08:56:42;;;;;;;1.40;0.60;;;10.50;38.10;;;;;;4972736;28;20503;-76
2021/11/06 08:59:08;;;;;;;2.88;0.47;;;10.50;38.60;;;;;;4973644;28;20070;-73
2021/11/06 09:01:34;;;;;;;1.02;0.40;;;10.50;38.60;;;;;;4973926;28;20046;-72
2021/11/06 09:04:00;;;;;;;0.93;0.50;;;10.50;38.80;;;;;;4971522;28;20007;-73
2021/11/06 09:06:26;;;;;;;1.02;0.50;;;10.60;38.80;;;;;;4973941;28;20478;-72
2021/11/06 09:08:52;;;;;;;1.27;0.43;;;10.70;38.70;;;;;;4967475;28;20019;-72
2021/11/06 09:11:19;;;;;;;2.13;0.93;;;10.70;38.40;;;;;;4973695;28;20531;-78
2021/11/06 09:13:54;;;;;;;3.08;0.88;;;10.80;37.70;;;;;;4972521;28;20023;-73
2021/11/06 09:16:20;;;;;;;1.40;0.70;;;10.80;38.90;;;;;;4973813;28;20023;-72
2021/11/06 09:18:46;;;;;;;1.23;0.45;;;10.90;39.10;;;;;;5005774;28;20387;-77
2021/11/06 09:21:15;;;;;;;0.85;0.52;;;11.10;39.20;;;;;;5008844;28;20026;-73
2021/11/06 09:23:42;;;;;;;1.05;0.60;;;11.20;39.80;;;;;;4973082;28;20098;-78
2021/11/06 09:26:09;;;;;;;1.05;0.43;;;11.40;38.80;;;;;;4973675;28;20050;-76
2021/11/06 09:28:42;;;;;;;1.10;0.47;;;11.50;37.60;;;;;;4977451;28;20019;-73
2021/11/06 09:31:12;;;;;;;1.10;0.50;;;11.60;37.10;;;;;;4977432;28;20422;-72
2021/11/06 09:33:43;;;;;;;1.27;0.65;;;11.70;38.10;;;;;;4977357;28;20030;-72
2021/11/06 09:36:10;;;;;;;2.83;1.10;;;11.90;37.70;;;;;;5006377;28;20134;-72
2021/11/06 09:38:37;;;;;;;0.90;0.50;;;12.00;37.60;;;;;;4976793;28;20043;-78
2021/11/06 09:41:07;;;;;;;0.60;0.40;;;12.00;37.60;;;;;;4977174;28;20077;-72
2021/11/06 09:43:34;;;;;;;1.10;0.40;;;12.10;37.50;;;;;;4977434;28;20019;-72
2021/11/06 09:46:00;;;;;;;1.70;0.30;;;12.20;36.70;;;;;;4975917;28;20092;-77
2021/11/06 09:48:28;;;;;;;0.63;0.30;;;12.40;35.20;;;;;;4975214;28;20050;-73
2021/11/06 09:50:56;;;;;;;1.13;0.40;;;12.40;35.90;;;;;;4977306;28;20502;-78
2021/11/06 09:53:33;;;;;;;1.33;0.40;;;12.40;36.30;;;;;;4975459;28;20027;-74
2021/11/06 09:55:59;;;;;;;0.68;0.32;;;12.50;36.70;;;;;;4971571;28;20031;-76
2021/11/06 09:58:25;;;;;;;0.93;0.50;;;12.60;36.60;;;;;;4972406;28;20067;-74
2021/11/06 10:00:51;;;;;;;0.60;0.30;;;12.70;37.00;;;;;;4976534;28;20436;-78
2021/11/06 10:03:17;;;;;;;0.57;0.47;;;12.70;36.20;;;;;;4976785;28;20383;-73
2021/11/06 10:05:52;;;;;;;1.90;0.40;;;12.90;36.00;;;;;;4976371;28;20023;-76
2021/11/06 10:08:21;;;;;;;0.90;0.40;;;13.00;34.70;;;;;;4963368;28;20518;-77
2021/11/06 10:10:48;;;;;;;0.93;0.50;;;13.00;35.40;;;;;;4979889;28;20498;-72
2021/11/06 10:13:14;;;;;;;0.90;0.60;;;13.10;35.30;;;;;;4976511;28;20021;-77
2021/11/06 10:15:46;;;;;;;1.08;0.30;;;13.10;35.90;;;;;;4975452;28;20391;-72
2021/11/06 10:18:16;;;;;;;1.23;0.60;;;13.20;34.30;;;;;;4976006;28;20595;-76
2021/11/06 10:20:45;;;;;;;1.48;0.65;;;13.30;33.50;;;;;;4974665;28;20165;-72
2021/11/06 10:23:11;;;;;;;1.15;0.45;;;13.40;34.40;;;;;;4975704;28;20041;-73
2021/11/06 10:25:37;;;;;;;0.63;0.40;;;13.40;34.80;;;;;;4975414;28;20023;-74
2021/11/06 10:28:09;;;;;;;0.93;0.38;;;13.50;34.40;;;;;;4976168;28;20037;-76
2021/11/06 10:30:39;;;;;;;2.05;0.77;;;13.50;33.90;;;;;;4975845;28;20077;-71
2021/11/06 10:33:10;;;;;;;125.90;26.35;;;13.60;33.50;;;;;;4976234;28;20102;-75
2021/11/06 10:35:43;;;;;;;3.90;0.77;;;13.60;33.60;;;;;;4975525;28;20118;-73
2021/11/06 10:38:09;;;;;;;;;;;13.70;33.10;;;;;;5007952;28;20066;-77
2021/11/06 10:40:50;;;;;;;1.08;0.40;;;13.80;33.10;;;;;;4975851;28;19938;-77
2021/11/06 10:43:18;;;;;;;1.40;0.63;;;13.80;33.20;;;;;;4975991;28;20034;-77
2021/11/06 10:46:04;;;;;;;1.70;0.52;;;13.90;33.20;;;;;;4976049;28;20023;-76
2021/11/06 10:48:33;;;;;;;1.67;0.50;;;14.00;34.10;;;;;;4975902;28;20046;-72
2021/11/06 10:51:04;;;;;;;3.78;0.70;;;14.10;32.40;;;;;;4975729;28;20045;-74
2021/11/06 10:53:50;;;;;;;1.17;0.50;;;14.20;35.30;;;;;;4975678;28;20023;-73
2021/11/06 10:56:22;;;;;;;1.00;0.80;;;14.30;34.00;;;;;;5001598;28;20082;-76
2021/11/06 10:58:51;;;;;;;1.35;0.30;;;14.50;32.40;;;;;;5005317;28;20214;-73
2021/11/06 11:01:38;;;;;;;1.45;0.30;;;14.50;32.30;;;;;;4975550;28;20027;-74
2021/11/06 11:04:16;;;;;;;0.82;0.20;;;14.50;33.60;;;;;;4969258;28;20035;-75
2021/11/06 11:06:45;;;;;;;0.25;0.20;;;14.70;33.60;;;;;;4975466;28;20027;-71
2021/11/06 11:09:18;;;;;;;0.40;0.25;;;14.90;31.40;;;;;;4975547;28;20554;-74
2021/11/06 11:11:44;;;;;;;0.82;0.30;;;15.00;32.10;;;;;;4975429;28;20050;-74
2021/11/06 11:14:13;;;;;;;0.98;0.40;;;15.10;31.40;;;;;;4975255;28;20029;-72
2021/11/06 11:16:51;;;;;;;0.57;0.30;;;15.30;31.90;;;;;;4967958;28;20114;-70
2021/11/06 11:19:18;;;;;;;0.73;0.28;;;15.40;32.10;;;;;;4975418;28;20379;-75
2021/11/06 11:21:46;;;;;;;3.92;0.40;;;15.50;31.90;;;;;;4965044;28;20094;-75
2021/11/06 11:24:15;;;;;;;0.70;0.43;;;15.60;31.70;;;;;;4974363;28;20090;-71
2021/11/06 11:26:53;;;;;;;0.32;0.25;;;15.60;30.10;;;;;;4975269;28;20447;-70
2021/11/06 11:29:25;;;;;;;1.00;0.30;;;15.40;29.50;;;;;;4983253;28;20142;-74
2021/11/06 11:31:53;;;;;;;0.60;0.20;;;15.20;30.50;;;;;;4970867;28;20482;-70
2021/11/06 11:34:19;;;;;;;0.65;0.32;;;15.40;32.50;;;;;;4974856;28;20082;-75
2021/11/06 11:36:46;;;;;;;0.55;0.20;;;15.60;30.00;;;;;;4974781;28;20047;-74
2021/11/06 11:39:15;;;;;;;0.73;0.20;;;15.70;30.10;;;;;;4974910;28;20073;-71
2021/11/06 11:41:43;;;;;;;1.67;0.40;;;15.90;30.00;;;;;;5004720;28;20649;-74
2021/11/06 11:44:46;;;;;;;0.20;0.20;;;16.10;30.70;;;;;;5005380;28;20173;-71
2021/11/06 11:47:17;;;;;;;0.65;0.30;;;16.10;30.50;;;;;;4972568;28;20031;-71
2021/11/06 11:49:45;;;;;;;0.35;0.20;;;16.20;28.80;;;;;;4942248;28;20574;-74
2021/11/06 11:52:35;;;;;;;0.35;0.28;;;16.20;29.80;;;;;;5009983;28;20101;-75
2021/11/06 11:55:19;;;;;;;0.40;0.20;;;16.20;29.10;;;;;;4993116;28;20018;-70
2021/11/06 11:58:15;;;;;;;0.65;0.30;;;16.30;29.10;;;;;;4992405;28;20026;-74
2021/11/06 12:00:46;;;;;;;0.45;0.30;;;16.50;30.60;;;;;;4990240;28;20054;-74
2021/11/06 12:03:13;;;;;;;1.10;0.30;;;16.60;29.30;;;;;;4994022;28;20101;-74
2021/11/06 12:05:39;;;;;;;1.02;0.30;;;16.60;29.00;;;;;;4993747;28;20522;-72
2021/11/06 12:08:14;;;;;;;0.47;0.20;;;16.30;28.50;;;;;;4993995;28;20030;-74
2021/11/06 12:10:56;;;;;;;0.30;0.20;;;16.50;29.90;;;;;;4992432;28;20081;-74
2021/11/06 12:13:31;;;;;;;1.75;0.20;;;16.70;28.90;;;;;;5007992;28;20026;-71
2021/11/06 12:16:05;;;;;;;0.70;0.40;;;16.90;29.10;;;;;;5008515;28;20038;-74
2021/11/06 12:18:56;;;;;;;0.60;0.30;;;16.80;28.60;;;;;;4993479;28;20101;-74
2021/11/06 12:21:26;;;;;;;1.65;0.40;;;17.00;29.10;;;;;;4997447;28;20069;-70
2021/11/06 12:23:57;;;;;;;1.15;0.50;;;17.20;30.50;;;;;;4994106;28;20015;-74
2021/11/06 12:26:45;;;;;;;1.10;0.52;;;17.30;30.20;;;;;;5007491;28;20105;-70
2021/11/06 12:29:11;;;;;;;0.88;0.70;;;17.30;30.20;;;;;;4992998;28;20574;-74
2021/11/06 12:31:48;;;;;;;0.70;0.40;;;17.40;30.10;;;;;;4989531;28;20113;-74
2021/11/06 12:34:46;;;;;;;0.70;0.40;;;17.50;29.90;;;;;;4990236;28;20046;-74
2021/11/06 12:37:37;;;;;;;1.17;0.63;;;17.20;29.20;;;;;;4998651;28;20052;-70
2021/11/06 12:40:20;;;;;;;0.90;0.50;;;17.00;31.30;;;;;;4999656;28;20015;-74
2021/11/06 12:43:04;;;;;;;0.45;0.30;;;17.00;31.00;;;;;;4992240;28;20030;-70
2021/11/06 12:45:30;;;;;;;0.73;0.32;;;16.80;31.10;;;;;;4981438;28;20375;-74
2021/11/06 12:48:24;;;;;;;1.20;0.50;;;16.90;31.10;;;;;;4993402;28;20024;-74
2021/11/06 12:51:12;;;;;;;0.93;0.50;;;17.00;31.00;;;;;;4992507;28;20482;-74
2021/11/06 12:53:41;;;;;;;1.45;0.65;;;17.20;30.80;;;;;;5010579;28;20437;-73
2021/11/06 12:56:09;;;;;;;0.60;0.40;;;17.10;29.70;;;;;;5012694;28;20478;-70